Time;durP1;ratioP1;P1;durP2;ratioP2;P2;SDS_P1;SDS_P2;PMS_P1;PMS_P2;Temp;Humidity;BMP_temperature;BMP_pressure;BME280_temperature;BME280_humidity;BME280_pressure;Samples;Min_cycle;Max_cycle;Signal;HPM_P1;HPM_P2
2021/08/22 00:01:09;;;;;;;10.58;5.92;;;;;;;14.56;90.12;99632.81;1724476;82;20996;-79
2021/08/22 00:03:37;;;;;;;9.70;6.35;;;;;;;14.53;90.20;99635.67;1727281;82;21042;-78
2021/08/22 00:06:03;;;;;;;9.73;5.55;;;;;;;14.49;90.32;99636.93;1723230;82;21738;-78
2021/08/22 00:08:31;;;;;;;8.73;5.58;;;;;;;14.47;90.56;99635.08;1730138;82;21433;-80
2021/08/22 00:10:59;;;;;;;9.38;5.92;;;;;;;14.46;90.65;99639.56;1730581;83;20933;-79
2021/08/22 00:13:27;;;;;;;8.60;4.97;;;;;;;14.45;90.83;99639.33;1730504;82;20972;-78
2021/08/22 00:15:54;;;;;;;10.23;5.90;;;;;;;14.45;90.93;99642.09;1719546;82;20937;-78
2021/08/22 00:18:21;;;;;;;9.70;5.45;;;;;;;14.43;90.79;99635.55;1723472;82;21145;-89
2021/08/22 00:20:48;;;;;;;10.05;5.78;;;;;;;14.40;90.75;99636.77;1734370;81;20860;-90
2021/08/22 00:23:15;;;;;;;7.40;5.53;;;;;;;14.39;91.04;99647.59;1727687;81;21529;-76
2021/08/22 00:25:42;;;;;;;7.47;5.40;;;;;;;14.36;91.05;99650.45;1720243;82;21075;-76
2021/08/22 00:28:08;;;;;;;8.98;5.62;;;;;;;14.34;91.25;99653.31;1711458;82;21031;-76
2021/08/22 00:30:35;;;;;;;10.88;5.55;;;;;;;14.32;91.28;99659.17;1724070;82;21196;-79
2021/08/22 00:33:02;;;;;;;9.05;5.75;;;;;;;14.31;91.27;99654.80;1722003;82;20941;-77
2021/08/22 00:35:28;;;;;;;9.30;5.87;;;;;;;14.29;91.38;99652.14;1729514;82;21645;-78
2021/08/22 00:37:56;;;;;;;12.47;5.72;;;;;;;14.27;91.72;99660.76;1787743;79;20989;-78
2021/08/22 00:40:24;;;;;;;10.05;5.35;;;;;;;14.23;91.61;99657.05;1791032;79;21518;-82
2021/08/22 00:42:52;;;;;;;9.23;5.20;;;;;;;14.20;91.85;99655.77;1777543;79;21208;-77
2021/08/22 00:45:19;;;;;;;9.68;5.40;;;;;;;14.19;92.00;99655.54;1796113;79;20854;-82
2021/08/22 00:47:49;;;;;;;7.85;4.80;;;;;;;14.15;92.06;99658.73;1782444;79;21162;-79
2021/08/22 00:50:19;;;;;;;8.98;5.70;;;;;;;14.13;92.38;99662.41;1781059;79;21043;-79
2021/08/22 00:52:47;;;;;;;8.18;5.65;;;;;;;14.10;92.37;99660.89;1795523;79;20920;-79
2021/08/22 00:55:13;;;;;;;9.88;5.75;;;;;;;14.08;92.26;99661.22;1786798;79;21064;-79
2021/08/22 00:57:40;;;;;;;9.75;5.58;;;;;;;14.07;92.55;99661.56;1780406;79;20928;-83
2021/08/22 01:00:09;;;;;;;9.98;6.08;;;;;;;14.06;92.51;99659.38;1787043;79;20895;-83
2021/08/22 01:02:58;;;;;;;9.90;5.60;;;;;;;14.04;92.53;99661.66;1788039;79;20968;-80
2021/08/22 01:06:02;;;;;;;9.93;5.70;;;;;;;14.04;92.60;99669.94;1784113;79;21400;-79
2021/08/22 01:08:41;;;;;;;6.95;4.95;;;;;;;14.02;92.68;99668.66;1788816;79;21077;-80
2021/08/22 01:11:16;;;;;;;10.32;5.03;;;;;;;13.99;92.69;99676.23;1788167;79;21049;-80
2021/08/22 01:13:50;;;;;;;10.82;5.40;;;;;;;13.95;92.80;99677.47;1788895;79;20908;-81
2021/08/22 01:16:16;;;;;;;10.23;5.37;;;;;;;13.92;93.00;99680.09;1779628;79;20982;-81
2021/08/22 01:18:44;;;;;;;8.43;5.72;;;;;;;13.91;93.14;99685.38;1782329;79;21055;-81
2021/08/22 01:21:17;;;;;;;7.37;5.25;;;;;;;13.91;93.04;99688.13;1784792;79;21039;-81
2021/08/22 01:23:55;;;;;;;9.40;5.65;;;;;;;13.89;93.14;99687.89;1759042;80;20914;-81
2021/08/22 01:26:29;;;;;;;9.93;6.60;;;;;;;13.91;93.09;99690.89;1789395;79;21385;-80
2021/08/22 01:28:59;;;;;;;9.90;5.37;;;;;;;13.87;92.88;99686.04;1776685;79;21009;-81
2021/08/22 01:31:32;;;;;;;9.58;5.67;;;;;;;13.86;92.98;99689.16;1766567;79;20983;-81
2021/08/22 01:33:59;;;;;;;13.13;6.20;;;;;;;13.83;93.07;99696.73;1789773;79;21501;-81
2021/08/22 01:36:27;;;;;;;12.63;5.78;;;;;;;13.79;93.37;99695.20;1796229;79;20940;-87
2021/08/22 01:38:54;;;;;;;14.30;5.85;;;;;;;13.77;93.42;99696.68;1756418;79;21039;-80
2021/08/22 01:41:24;;;;;;;9.48;5.40;;;;;;;13.73;93.68;99697.92;1791875;79;20939;-82
2021/08/22 01:43:54;;;;;;;11.85;5.58;;;;;;;13.73;93.85;99695.16;1796249;79;20921;-81
2021/08/22 01:46:23;;;;;;;9.60;5.85;;;;;;;13.72;93.92;99696.30;1785686;79;21142;-81
2021/08/22 01:48:51;;;;;;;8.18;5.37;;;;;;;13.69;93.99;99693.39;1787047;79;21409;-85
2021/08/22 01:51:17;;;;;;;11.73;5.53;;;;;;;13.65;93.98;99690.49;1797252;79;20872;-85
2021/08/22 01:53:44;;;;;;;10.65;5.65;;;;;;;13.61;93.87;99696.44;1781800;79;21009;-86
2021/08/22 01:56:10;;;;;;;7.62;5.42;;;;;;;13.55;94.07;99689.48;1784131;79;21491;-79
2021/08/22 01:58:37;;;;;;;8.50;5.30;;;;;;;13.50;94.31;99689.67;1786564;79;21072;-84
2021/08/22 02:01:03;;;;;;;11.38;5.60;;;;;;;13.47;94.67;99689.77;1779662;79;21094;-80
2021/08/22 02:03:44;;;;;;;8.80;5.40;;;;;;;13.45;94.83;99687.91;1794242;79;20834;-78
2021/08/22 02:06:24;;;;;;;8.23;5.35;;;;;;;13.42;94.73;99689.95;1799392;79;20972;-78
2021/08/22 02:08:56;;;;;;;7.50;5.78;;;;;;;13.38;94.52;99685.42;1795337;79;21459;-78
2021/08/22 02:11:26;;;;;;;9.45;5.17;;;;;;;13.35;95.00;99688.84;1796433;79;20900;-84
2021/08/22 02:13:54;;;;;;;9.20;5.75;;;;;;;13.34;95.32;99688.60;1786282;79;20877;-77
2021/08/22 02:16:25;;;;;;;13.75;5.87;;;;;;;13.32;95.51;99686.75;1781941;79;20900;-76
2021/08/22 02:18:55;;;;;;;10.35;5.80;;;;;;;13.32;95.72;99693.64;1771045;79;20946;-77
2021/08/22 02:21:22;;;;;;;6.50;4.90;;;;;;;13.33;95.83;99698.82;1765297;79;20976;-77
2021/08/22 02:23:54;;;;;;;6.65;5.08;;;;;;;13.31;95.72;99692.83;1786864;79;21135;-76
2021/08/22 02:26:22;;;;;;;8.78;5.20;;;;;;;13.28;95.68;99697.66;1778447;79;21455;-75
2021/08/22 02:28:58;;;;;;;8.95;5.47;;;;;;;13.26;95.73;99698.55;1766630;79;20943;-74
2021/08/22 02:31:28;;;;;;;9.28;5.50;;;;;;;13.20;95.59;99699.30;1781801;79;21561;-82
2021/08/22 02:33:56;;;;;;;10.48;5.72;;;;;;;13.18;95.67;99702.95;1792603;79;21060;-83
2021/08/22 02:36:23;;;;;;;8.98;5.90;;;;;;;13.15;95.75;99701.39;1789758;79;21424;-81
2021/08/22 02:38:50;;;;;;;8.98;6.00;;;;;;;13.11;95.95;99703.19;1793003;79;21432;-77
2021/08/22 02:41:16;;;;;;;12.18;5.08;;;;;;;13.09;96.31;99703.52;1793961;79;21000;-83
2021/08/22 02:43:43;;;;;;;11.48;5.35;;;;;;;13.07;96.52;99698.09;1789932;79;20884;-81
2021/08/22 02:46:09;;;;;;;8.50;5.37;;;;;;;13.05;96.50;99698.42;1789395;79;20936;-85
2021/08/22 02:48:36;;;;;;;6.92;4.87;;;;;;;13.02;96.52;99702.41;1778215;79;21132;-80
2021/08/22 02:51:02;;;;;;;8.08;5.00;;;;;;;12.99;96.37;99692.84;1741422;80;20983;-79
2021/08/22 02:53:30;;;;;;;7.83;4.90;;;;;;;12.93;96.28;99702.42;1770265;80;20916;-77
2021/08/22 02:55:57;;;;;;;6.12;4.55;;;;;;;12.85;96.13;99703.23;1773804;80;21495;-76
2021/08/22 02:58:23;;;;;;;10.03;5.03;;;;;;;12.77;95.56;99698.55;1772673;80;20904;-77
2021/08/22 03:00:50;;;;;;;11.90;5.47;;;;;;;12.67;95.69;99701.11;1761272;80;22330;-76
2021/08/22 03:03:16;;;;;;;8.58;4.97;;;;;;;12.63;95.80;99706.22;1763092;80;21483;-76
2021/08/22 03:05:43;;;;;;;7.78;4.65;;;;;;;12.58;95.64;99705.00;1782477;79;20969;-76
2021/08/22 03:08:09;;;;;;;10.20;6.05;;;;;;;12.50;95.44;99700.55;1777344;79;20919;-77
2021/08/22 03:10:36;;;;;;;9.63;5.40;;;;;;;12.47;95.99;99712.21;1781996;79;20986;-76
2021/08/22 03:13:03;;;;;;;8.80;5.83;;;;;;;12.50;96.70;99704.68;1770761;80;21120;-76
2021/08/22 03:15:30;;;;;;;11.15;5.87;;;;;;;12.50;96.44;99706.05;1730390;80;21006;-77
2021/08/22 03:17:58;;;;;;;12.25;5.17;;;;;;;12.49;96.29;99716.02;1713573;82;21131;-87
2021/08/22 03:20:24;;;;;;;9.78;5.03;;;;;;;12.46;96.28;99709.22;1700594;82;20996;-86
2021/08/22 03:22:51;;;;;;;10.40;4.45;;;;;;;12.43;96.18;99712.61;1774744;79;21019;-73
2021/08/22 03:25:18;;;;;;;10.93;4.75;;;;;;;12.42;96.30;99709.62;1785539;79;21153;-80
2021/08/22 03:27:45;;;;;;;8.53;4.70;;;;;;;12.41;96.22;99718.20;1786888;79;20951;-76
2021/08/22 03:30:13;;;;;;;11.73;6.17;;;;;;;12.39;96.25;99717.15;1785842;79;20927;-78
2021/08/22 03:32:39;;;;;;;11.25;5.83;;;;;;;12.37;96.52;99723.55;1723525;82;20963;-83
2021/08/22 03:35:07;;;;;;;9.95;6.12;;;;;;;12.40;97.45;99720.71;1722828;82;20995;-78
2021/08/22 03:37:34;;;;;;;11.35;6.22;;;;;;;12.44;98.10;99724.44;1713319;82;21136;-78
2021/08/22 03:40:01;;;;;;;12.98;6.47;;;;;;;12.48;98.28;99726.22;1706480;82;21694;-79
2021/08/22 03:42:28;;;;;;;9.23;6.40;;;;;;;12.54;98.36;99728.25;1730249;82;20988;-79
2021/08/22 03:44:57;;;;;;;11.48;6.62;;;;;;;12.58;98.53;99725.09;1657138;85;20966;-78
2021/08/22 03:47:23;;;;;;;10.03;6.62;;;;;;;12.62;98.65;99730.19;1707643;83;20896;-77
2021/08/22 03:49:50;;;;;;;11.75;6.60;;;;;;;12.67;98.98;99731.97;1701900;83;21218;-79
2021/08/22 03:52:17;;;;;;;8.60;6.17;;;;;;;12.71;99.27;99745.34;1715433;82;20939;-77
2021/08/22 03:54:44;;;;;;;10.75;5.67;;;;;;;12.76;99.66;99738.25;1713192;82;20955;-79
2021/08/22 03:57:11;;;;;;;9.50;5.45;;;;;;;12.82;99.95;99733.63;1719963;82;20974;-78
2021/08/22 03:59:38;;;;;;;12.33;6.03;;;;;;;12.89;100.00;99735.33;1723117;82;21005;-78
2021/08/22 04:02:06;;;;;;;9.15;5.62;;;;;;;12.97;100.00;99740.58;1725459;81;21146;-77
2021/08/22 04:04:37;;;;;;;6.80;5.10;;;;;;;13.02;100.00;99739.03;1658942;83;20956;-74
2021/08/22 04:07:05;;;;;;;10.18;5.70;;;;;;;13.09;100.00;99737.16;1710861;82;21013;-80
2021/08/22 04:09:33;;;;;;;7.83;5.55;;;;;;;13.17;100.00;99739.92;1710091;81;21582;-82
2021/08/22 04:12:00;;;;;;;18.23;6.08;;;;;;;13.25;100.00;99734.72;1709705;82;21052;-86
2021/08/22 04:14:27;;;;;;;9.78;6.40;;;;;;;13.32;100.00;99742.70;1701366;82;21153;-91
2021/08/22 04:16:54;;;;;;;10.03;5.30;;;;;;;13.41;100.00;99743.48;1697811;83;20892;-81
2021/08/22 04:19:20;;;;;;;8.98;5.15;;;;;;;13.50;100.00;99744.83;1699620;82;21049;-81
2021/08/22 04:21:47;;;;;;;9.53;5.47;;;;;;;13.57;100.00;99746.51;1705988;83;20970;-80
2021/08/22 04:24:13;;;;;;;11.60;5.83;;;;;;;13.63;99.93;99742.42;1708112;82;20960;-79
2021/08/22 04:26:40;;;;;;;8.65;5.67;;;;;;;13.71;99.87;99747.09;1704577;82;21107;-83
2021/08/22 04:29:10;;;;;;;11.03;5.42;;;;;;;13.77;99.62;99751.86;1709319;82;20928;-83
2021/08/22 04:31:37;;;;;;;8.53;6.22;;;;;;;13.84;99.42;99754.34;1716827;82;21304;-90
2021/08/22 04:34:03;;;;;;;14.23;5.17;;;;;;;13.91;99.22;99748.27;1716500;81;21071;-86
2021/08/22 04:36:30;;;;;;;13.00;5.85;;;;;;;13.97;98.93;99753.84;1713760;81;20880;-78
2021/08/22 04:38:56;;;;;;;7.72;4.92;;;;;;;14.01;98.60;99756.17;1703854;82;21200;-75
2021/08/22 04:41:24;;;;;;;7.60;5.10;;;;;;;14.10;98.55;99763.03;1700075;83;20908;-73
2021/08/22 04:43:52;;;;;;;9.53;5.58;;;;;;;14.19;97.85;99765.16;1735542;82;21531;-72
2021/08/22 04:46:20;;;;;;;7.53;4.78;;;;;;;14.24;97.22;99764.16;1735222;82;20901;-78
2021/08/22 04:48:48;;;;;;;9.68;5.30;;;;;;;14.30;96.79;99761.45;1720644;82;21004;-83
2021/08/22 04:51:15;;;;;;;10.85;5.45;;;;;;;14.38;96.77;99760.58;1707940;82;21095;-76
2021/08/22 04:53:42;;;;;;;15.15;5.37;;;;;;;14.49;96.86;99761.80;1723696;82;20889;-80
2021/08/22 04:56:08;;;;;;;15.55;6.22;;;;;;;14.62;96.30;99759.91;1717006;82;20992;-79
2021/08/22 04:58:36;;;;;;;14.87;5.05;;;;;;;14.74;95.88;99759.98;1711168;82;21019;-79
2021/08/22 05:01:02;;;;;;;7.05;4.33;;;;;;;14.85;95.21;99762.00;1730092;82;20896;-79
2021/08/22 05:03:28;;;;;;;8.58;4.15;;;;;;;14.93;94.33;99758.92;1730800;82;21472;-78
2021/08/22 05:05:55;;;;;;;9.00;5.00;;;;;;;15.02;93.53;99758.23;1725142;81;21059;-74
2021/08/22 05:08:22;;;;;;;8.65;4.25;;;;;;;15.12;93.07;99757.81;1733496;82;21472;-71
2021/08/22 05:10:49;;;;;;;7.22;5.03;;;;;;;15.25;92.58;99757.85;1722822;82;21431;-71
2021/08/22 05:13:16;;;;;;;13.60;4.65;;;;;;;15.36;92.35;99757.08;1732661;82;21004;-79
2021/08/22 05:15:45;;;;;;;5.40;3.77;;;;;;;15.44;91.49;99752.02;1730844;82;20892;-77
2021/08/22 05:18:12;;;;;;;26.42;5.42;;;;;;;15.56;91.42;99758.16;1725587;82;20986;-80
2021/08/22 05:20:39;;;;;;;23.20;5.20;;;;;;;15.68;91.31;99759.55;1724807;81;21027;-82
2021/08/22 05:23:05;;;;;;;12.05;4.30;;;;;;;15.81;90.31;99761.19;1702807;82;21032;-83
2021/08/22 05:25:32;;;;;;;11.90;4.22;;;;;;;15.92;90.04;99762.92;1728483;82;21048;-78
2021/08/22 05:27:58;;;;;;;8.05;4.55;;;;;;;16.04;90.10;99760.73;1740167;82;21443;-81
2021/08/22 05:30:25;;;;;;;6.97;3.60;;;;;;;16.15;89.11;99763.26;1734161;82;20975;-86
2021/08/22 05:32:51;;;;;;;10.25;3.40;;;;;;;16.23;87.66;99769.23;1726878;82;21056;-80
2021/08/22 05:35:18;;;;;;;6.95;4.15;;;;;;;16.28;86.29;99762.06;1718443;82;21094;-81
2021/08/22 05:37:44;;;;;;;11.63;4.53;;;;;;;16.35;86.37;99763.67;1723855;80;21017;-81
2021/08/22 05:40:12;;;;;;;8.95;4.33;;;;;;;16.44;85.80;99761.58;1751491;80;21678;-80
2021/08/22 05:42:39;;;;;;;6.35;3.80;;;;;;;16.57;85.88;99765.71;1747496;80;21559;-80
2021/08/22 05:45:07;;;;;;;7.70;4.10;;;;;;;16.67;84.84;99769.41;1756205;80;21014;-80
2021/08/22 05:47:35;;;;;;;9.43;4.50;;;;;;;16.77;83.85;99765.53;1755506;81;20982;-82
2021/08/22 05:50:04;;;;;;;7.05;4.42;;;;;;;16.85;83.69;99770.70;1739632;81;21115;-80
2021/08/22 05:52:36;;;;;;;7.85;4.35;;;;;;;16.91;83.35;99771.27;1754490;80;21948;-76
2021/08/22 05:55:07;;;;;;;7.85;4.50;;;;;;;16.98;83.14;99770.89;1757565;80;20994;-82
2021/08/22 05:57:34;;;;;;;7.70;4.77;;;;;;;17.09;83.17;99772.58;1747495;80;22128;-83
2021/08/22 06:00:01;;;;;;;12.82;4.78;;;;;;;17.21;82.07;99778.08;1756438;80;21476;-81
2021/08/22 06:02:27;;;;;;;9.03;4.60;;;;;;;17.34;82.48;99773.23;1755973;80;21009;-83
2021/08/22 06:04:55;;;;;;;8.78;5.03;;;;;;;17.46;82.45;99776.75;1751987;80;21132;-83
2021/08/22 06:07:23;;;;;;;15.32;4.00;;;;;;;17.58;81.53;99777.27;1717121;81;20999;-84
2021/08/22 06:09:51;;;;;;;10.78;4.42;;;;;;;17.66;81.12;99774.13;1764484;80;20931;-81
2021/08/22 06:12:18;;;;;;;8.30;3.37;;;;;;;17.74;80.42;99778.70;1772353;80;21039;-81
2021/08/22 06:14:45;;;;;;;10.00;3.98;;;;;;;17.83;79.45;99776.55;1772791;80;20967;-79
2021/08/22 06:17:12;;;;;;;12.23;3.67;;;;;;;17.93;77.89;99775.17;1727724;80;21062;-81
2021/08/22 06:19:38;;;;;;;6.62;2.85;;;;;;;18.01;76.81;99772.80;1733159;81;20988;-81
2021/08/22 06:22:05;;;;;;;4.17;2.62;;;;;;;18.11;75.43;99773.64;1743516;82;21014;-81
2021/08/22 06:24:33;;;;;;;10.03;3.27;;;;;;;18.21;74.50;99772.28;1710326;83;21018;-82
2021/08/22 06:27:00;;;;;;;7.30;3.83;;;;;;;18.32;74.10;99778.31;1709920;82;20908;-75
2021/08/22 06:29:27;;;;;;;8.60;2.77;;;;;;;18.46;73.58;99781.42;1733739;81;21204;-76
2021/08/22 06:31:54;;;;;;;8.13;3.22;;;;;;;18.61;73.19;99777.56;1743805;81;20853;-74
2021/08/22 06:34:20;;;;;;;7.20;3.20;;;;;;;18.74;73.06;99780.44;1732451;81;20865;-77
2021/08/22 06:36:48;;;;;;;4.97;3.10;;;;;;;18.82;71.78;99779.42;1727386;82;21019;-73
2021/08/22 06:39:14;;;;;;;7.75;3.22;;;;;;;18.91;72.01;99784.77;1717538;81;21024;-77
2021/08/22 06:41:41;;;;;;;4.87;2.72;;;;;;;19.04;72.84;99788.44;1740221;80;21088;-74
2021/08/22 06:44:08;;;;;;;6.85;3.22;;;;;;;19.18;70.31;99783.71;1761435;80;20959;-75
2021/08/22 06:46:36;;;;;;;7.05;3.25;;;;;;;19.29;69.99;99785.31;1742799;81;20983;-75
2021/08/22 06:49:03;;;;;;;8.43;3.40;;;;;;;19.38;68.98;99790.06;1747261;80;20892;-75
2021/08/22 06:51:29;;;;;;;11.28;3.15;;;;;;;19.41;69.46;99789.33;1739484;80;21011;-79
2021/08/22 06:53:56;;;;;;;6.15;2.83;;;;;;;19.45;69.55;99788.22;1723899;81;21214;-77
2021/08/22 06:56:23;;;;;;;6.10;2.98;;;;;;;19.59;68.48;99792.48;1749146;81;20939;-81
2021/08/22 06:58:50;;;;;;;7.35;3.05;;;;;;;19.71;69.02;99788.89;1759238;81;21400;-78
2021/08/22 07:01:17;;;;;;;3.55;2.10;;;;;;;19.86;67.88;99787.75;1753057;80;21550;-78
2021/08/22 07:03:45;;;;;;;5.95;3.00;;;;;;;19.97;66.47;99785.95;1754542;80;21020;-74
2021/08/22 07:06:12;;;;;;;4.78;2.30;;;;;;;20.07;67.24;99788.91;1755435;80;21269;-79
2021/08/22 07:08:38;;;;;;;3.92;2.45;;;;;;;20.25;66.09;99791.16;1743612;80;20908;-76
2021/08/22 07:11:05;;;;;;;8.95;2.22;;;;;;;20.40;64.90;99793.02;1732732;80;21044;-77
2021/08/22 07:13:33;;;;;;;4.78;2.40;;;;;;;20.54;63.20;99789.63;1747888;80;20912;-77
2021/08/22 07:15:59;;;;;;;7.35;2.75;;;;;;;20.62;61.52;99789.36;1752493;80;20945;-77
2021/08/22 07:18:26;;;;;;;5.30;2.15;;;;;;;20.69;61.67;99786.66;1756850;80;21850;-76
2021/08/22 07:20:53;;;;;;;5.15;2.20;;;;;;;20.75;60.51;99788.53;1751754;80;21487;-75
2021/08/22 07:23:20;;;;;;;4.50;2.08;;;;;;;20.79;58.81;99795.56;1750152;80;21620;-75
2021/08/22 07:25:47;;;;;;;4.15;2.22;;;;;;;20.85;59.04;99796.80;1747554;80;21502;-75
2021/08/22 07:28:13;;;;;;;4.15;2.00;;;;;;;20.94;59.11;99791.75;1698690;83;21451;-76
2021/08/22 07:30:40;;;;;;;3.52;2.12;;;;;;;21.03;58.71;99794.45;1677101;84;21118;-75
2021/08/22 07:33:06;;;;;;;2.75;1.65;;;;;;;21.13;59.73;99791.59;1669056;84;21027;-75
2021/08/22 07:35:33;;;;;;;2.92;1.90;;;;;;;21.29;60.21;99787.22;1679403;83;20966;-76
2021/08/22 07:37:59;;;;;;;5.17;1.70;;;;;;;21.47;57.76;99787.38;1677889;83;21021;-76
2021/08/22 07:40:26;;;;;;;5.80;2.12;;;;;;;21.53;58.02;99793.64;1672121;84;21203;-75
2021/08/22 07:42:54;;;;;;;4.10;2.42;;;;;;;21.66;58.23;99789.98;1714331;82;21155;-75
2021/08/22 07:45:20;;;;;;;3.58;1.85;;;;;;;21.82;56.38;99802.30;1712279;81;20917;-73
2021/08/22 07:47:47;;;;;;;2.72;1.67;;;;;;;21.93;55.73;99797.62;1687734;83;20996;-76
2021/08/22 07:50:13;;;;;;;6.35;1.92;;;;;;;22.14;55.42;99798.39;1678744;83;21872;-76
2021/08/22 07:52:40;;;;;;;4.58;1.50;;;;;;;22.55;56.58;99798.47;1673281;83;21374;-76
2021/08/22 07:55:09;;;;;;;2.72;1.65;;;;;;;23.07;54.48;99808.17;1687852;83;21067;-75
2021/08/22 07:57:35;;;;;;;3.02;1.37;;;;;;;23.56;52.35;99797.14;1671938;83;21030;-75
2021/08/22 08:00:03;;;;;;;3.52;1.62;;;;;;;23.89;50.58;99793.16;1673338;84;21039;-75
2021/08/22 08:02:32;;;;;;;1.62;1.17;;;;;;;24.13;48.70;99792.97;1669376;84;21019;-76
2021/08/22 08:04:59;;;;;;;2.35;1.30;;;;;;;24.30;49.06;99784.34;1678034;83;21029;-76
2021/08/22 08:07:25;;;;;;;7.15;1.67;;;;;;;24.52;47.29;99785.91;1663869;83;21791;-76
2021/08/22 08:09:51;;;;;;;5.42;1.60;;;;;;;24.51;46.93;99784.31;1686281;83;21522;-75
2021/08/22 08:12:18;;;;;;;4.58;1.50;;;;;;;24.55;46.99;99790.72;1689033;83;20929;-75
2021/08/22 08:14:44;;;;;;;4.80;1.20;;;;;;;24.61;44.39;99791.11;1690533;83;21545;-74
2021/08/22 08:17:11;;;;;;;2.87;1.37;;;;;;;24.61;45.06;99779.88;1702232;82;21048;-74
2021/08/22 08:19:40;;;;;;;3.33;1.00;;;;;;;24.79;47.03;99777.83;1703665;82;21115;-74
2021/08/22 08:22:09;;;;;;;1.77;1.37;;;;;;;25.16;45.79;99780.09;1706808;82;21050;-74
2021/08/22 08:24:35;;;;;;;2.70;1.42;;;;;;;25.49;44.92;99777.28;1677381;83;20976;-77
2021/08/22 08:27:01;;;;;;;2.52;1.05;;;;;;;25.90;43.63;99781.65;1682825;84;21000;-74
2021/08/22 08:29:28;;;;;;;4.28;1.20;;;;;;;26.25;42.63;99779.12;1741585;80;21087;-76
2021/08/22 08:31:55;;;;;;;5.80;1.55;;;;;;;26.46;40.30;99773.92;1734228;81;21210;-76
2021/08/22 08:34:21;;;;;;;5.67;1.05;;;;;;;26.62;41.53;99773.33;1725436;81;21228;-75
2021/08/22 08:36:49;;;;;;;1.25;1.00;;;;;;;26.86;42.13;99772.86;1749983;80;20905;-77
2021/08/22 08:39:16;;;;;;;2.83;1.20;;;;;;;27.16;40.89;99777.72;1743957;80;21042;-83
2021/08/22 08:41:42;;;;;;;3.58;1.37;;;;;;;27.36;38.89;99776.45;1757331;80;21032;-78
2021/08/22 08:44:13;;;;;;;3.90;1.00;;;;;;;27.08;38.90;99780.47;1743542;81;21104;-80
2021/08/22 08:46:56;;;;;;;3.83;1.30;;;;;;;26.67;38.38;99779.91;1760708;80;20991;-76
2021/08/22 08:49:33;;;;;;;2.17;1.02;;;;;;;26.42;40.01;99783.62;1716093;80;21112;-82
2021/08/22 08:52:49;;;;;;;2.90;1.65;;;;;;;26.63;41.40;99779.95;1735469;80;21051;-81
2021/08/22 08:55:45;;;;;;;3.12;1.45;;;;;;;26.77;37.67;99769.14;1741856;80;21532;-87
2021/08/22 08:58:12;;;;;;;2.85;1.25;;;;;;;26.88;38.63;99781.69;1741913;81;21087;-81
2021/08/22 09:00:42;;;;;;;3.15;1.55;;;;;;;27.02;37.34;99773.09;1742902;81;37439;-81
2021/08/22 09:03:17;;;;;;;4.47;1.25;;;;;;;27.11;38.56;99775.41;1742584;80;21003;-75
2021/08/22 09:06:30;;;;;;;3.90;1.07;;;;;;;27.37;36.90;99768.98;1741323;80;20928;-74
2021/08/22 09:09:53;;;;;;;1.72;0.93;;;;;;;27.54;37.30;99769.34;1733004;80;21060;-81
2021/08/22 09:12:53;;;;;;;2.70;1.00;;;;;;;27.59;36.43;99777.35;1736854;80;21527;-80
2021/08/22 09:16:02;;;;;;;2.55;1.17;;;;;;;27.72;35.92;99766.90;1740885;80;21042;-79
2021/08/22 09:19:23;;;;;;;5.65;1.42;;;;;;;27.78;36.73;99773.63;1753086;80;20932;-79
2021/08/22 09:22:49;;;;;;;4.37;1.20;;;;;;;27.86;36.78;99774.49;1748688;80;20966;-80
2021/08/22 09:26:11;;;;;;;1.75;1.00;;;;;;;28.03;36.37;99768.38;1753695;80;20975;-83
2021/08/22 09:29:10;;;;;;;;;;;;;;;28.34;36.10;99764.02;1760686;80;21146;-76
2021/08/22 09:32:28;;;;;;;1.57;1.02;;;;;;;28.61;34.84;99771.78;1748414;80;20112;-75
2021/08/22 09:35:46;;;;;;;1.87;0.90;;;;;;;28.77;33.58;99774.70;1759840;80;21566;-76
2021/08/22 09:39:08;;;;;;;5.67;1.62;;;;;;;28.72;32.47;99763.11;1750949;80;21507;-82
2021/08/22 09:42:24;;;;;;;3.47;1.40;;;;;;;28.57;34.96;99763.99;1743206;80;21491;-80
2021/08/22 09:45:47;;;;;;;2.10;1.00;;;;;;;28.55;35.61;99759.39;1741589;80;21157;-81
2021/08/22 09:48:58;;;;;;;16.45;3.98;;;;;;;28.72;35.33;99756.84;1743718;81;20936;-78
2021/08/22 09:51:47;;;;;;;2.27;1.10;;;;;;;28.82;34.25;99767.78;1728662;82;21521;-73
2021/08/22 09:54:50;;;;;;;3.33;1.30;;;;;;;28.78;34.59;99765.61;1743567;81;20873;-74
2021/08/22 09:58:11;;;;;;;4.67;1.20;;;;;;;28.72;34.76;99766.73;1749107;82;20985;-81
2021/08/22 10:00:52;;;;;;;1.67;0.98;;;;;;;28.88;34.85;99775.28;1685484;85;21116;-73
2021/08/22 10:03:36;;;;;;;3.20;1.10;;;;;;;28.85;35.50;99772.56;1742925;81;20893;-84
2021/08/22 10:06:34;;;;;;;2.33;1.02;;;;;;;29.08;34.34;99769.62;1700016;82;21017;-77
2021/08/22 10:09:15;;;;;;;3.47;0.90;;;;;;;29.40;32.37;99770.34;1739302;81;20934;-88
2021/08/22 10:11:56;;;;;;;1.50;0.90;;;;;;;29.22;32.04;99764.28;1729791;82;20998;-89
2021/08/22 10:14:30;;;;;;;3.00;1.00;;;;;;;28.73;32.36;99769.73;1706239;82;20985;-81
2021/08/22 10:17:05;;;;;;;2.92;1.37;;;;;;;28.49;34.96;99761.91;1720881;82;21547;-81
2021/08/22 10:19:35;;;;;;;4.15;0.85;;;;;;;28.62;33.34;99754.22;1720784;82;20937;-73
2021/08/22 10:22:16;;;;;;;10.58;1.30;;;;;;;28.78;32.60;99760.75;1719209;82;21529;-73
2021/08/22 10:24:58;;;;;;;1.45;1.00;;;;;;;28.97;32.96;99754.12;1717639;82;21047;-86
2021/08/22 10:27:37;;;;;;;2.55;1.20;;;;;;;29.07;34.05;99755.31;1745439;81;21154;-80
2021/08/22 10:30:25;;;;;;;2.05;0.85;;;;;;;29.27;30.97;99753.88;1744378;82;20976;-85
2021/08/22 10:33:07;;;;;;;2.08;0.85;;;;;;;29.12;31.71;99756.22;1666185;83;21584;-81
2021/08/22 10:35:38;;;;;;;2.02;0.80;;;;;;;28.76;32.50;99753.95;1705923;82;20982;-78
2021/08/22 10:38:27;;;;;;;3.92;1.27;;;;;;;28.33;33.70;99762.42;1689794;83;21134;-73
2021/08/22 10:40:58;;;;;;;2.60;1.07;;;;;;;27.95;34.06;99769.72;1714571;83;21811;-70
2021/08/22 10:43:31;;;;;;;2.25;1.20;;;;;;;27.37;34.96;99771.80;1707683;82;20993;-73
2021/08/22 10:46:02;;;;;;;1.80;1.05;;;;;;;26.99;35.61;99768.91;1707264;83;21487;-73
2021/08/22 10:48:35;;;;;;;1.42;1.10;;;;;;;26.93;34.36;99767.94;1723401;80;21561;-73
2021/08/22 10:51:11;;;;;;;4.05;1.22;;;;;;;27.07;35.17;99762.77;1719304;82;21030;-74
2021/08/22 10:53:43;;;;;;;1.55;1.00;;;;;;;27.42;36.85;99757.84;1750238;80;21112;-74
2021/08/22 10:56:37;;;;;;;7.22;1.40;;;;;;;27.90;33.23;99758.31;1743520;80;21043;-75
2021/08/22 10:59:04;;;;;;;2.55;1.10;;;;;;;28.13;32.28;99749.67;1752302;80;20999;-73
2021/08/22 11:01:36;;;;;;;4.95;1.20;;;;;;;28.28;31.19;99751.66;1747385;80;21024;-73
2021/08/22 11:04:18;;;;;;;5.42;1.10;;;;;;;28.30;33.34;99754.84;1748806;80;21013;-74
2021/08/22 11:07:06;;;;;;;2.05;1.20;;;;;;;28.46;30.77;99752.90;1749386;80;21237;-75
2021/08/22 11:09:41;;;;;;;2.60;1.42;;;;;;;28.56;30.58;99752.52;1727696;81;21018;-75
2021/08/22 11:12:29;;;;;;;4.10;1.15;;;;;;;28.54;30.09;99750.73;1748927;81;21182;-73
2021/08/22 11:15:03;;;;;;;2.17;1.20;;;;;;;28.63;31.23;99749.55;1749666;81;21504;-72
2021/08/22 11:17:31;;;;;;;4.40;1.12;;;;;;;28.63;29.29;99748.14;1745765;80;21097;-71
2021/08/22 11:20:19;;;;;;;1.92;1.30;;;;;;;28.75;31.83;99747.50;1758788;80;21157;-71
2021/08/22 11:22:50;;;;;;;2.47;1.52;;;;;;;28.96;32.89;99744.05;1756970;81;20953;-70
2021/08/22 11:25:16;;;;;;;3.87;1.40;;;;;;;29.22;32.44;99744.50;1748087;80;21085;-73
2021/08/22 11:27:48;;;;;;;2.25;1.17;;;;;;;29.19;31.78;99749.61;1763773;80;21554;-74
2021/08/22 11:30:27;;;;;;;2.02;1.15;;;;;;;28.92;33.56;99749.16;1724458;80;21501;-72
2021/08/22 11:32:54;;;;;;;2.45;1.30;;;;;;;28.69;32.46;99754.88;1742026;80;21847;-72
2021/08/22 11:35:24;;;;;;;3.87;1.30;;;;;;;28.65;32.05;99747.09;1731944;81;20981;-70
2021/08/22 11:37:57;;;;;;;4.62;1.57;;;;;;;28.77;31.83;99737.97;1738878;80;20968;-72
2021/08/22 11:40:29;;;;;;;3.47;2.10;;;;;;;29.08;31.36;99739.16;1745413;80;21045;-75
2021/08/22 11:43:02;;;;;;;2.50;1.45;;;;;;;29.18;31.25;99742.37;1728308;80;20989;-73
2021/08/22 11:45:44;;;;;;;1.90;1.37;;;;;;;29.25;31.96;99742.21;1752229;79;21136;-73
2021/08/22 11:48:19;;;;;;;3.45;1.65;;;;;;;29.20;31.28;99738.48;1739063;80;21774;-74
2021/08/22 11:50:52;;;;;;;7.28;1.87;;;;;;;28.87;31.32;99733.37;1741264;80;21000;-72
2021/08/22 11:53:26;;;;;;;2.47;1.60;;;;;;;28.52;32.54;99735.64;1749460;80;20999;-72
2021/08/22 11:55:58;;;;;;;3.72;1.42;;;;;;;28.09;32.30;99734.83;1744770;80;21009;-72